sensor_id;sensor_type;location;lat;lon;timestamp;P1;durP1;ratioP1;P2;durP2;ratioP2
15990;SDS011;8100;50.994;4.538;2023-02-28T00:01:48;8.75;;;4.22;;
15990;SDS011;8100;50.994;4.538;2023-02-28T00:04:35;5.82;;;3.80;;
15990;SDS011;8100;50.994;4.538;2023-02-28T00:07:22;6.20;;;3.80;;
15990;SDS011;8100;50.994;4.538;2023-02-28T00:10:11;10.68;;;4.30;;
15990;SDS011;8100;50.994;4.538;2023-02-28T00:13:01;8.25;;;3.85;;
15990;SDS011;8100;50.994;4.538;2023-02-28T00:15:58;6.85;;;3.70;;
15990;SDS011;8100;50.994;4.538;2023-02-28T00:18:46;7.00;;;4.05;;
15990;SDS011;8100;50.994;4.538;2023-02-28T00:21:34;6.10;;;3.85;;
15990;SDS011;8100;50.994;4.538;2023-02-28T00:24:21;7.10;;;4.18;;
15990;SDS011;8100;50.994;4.538;2023-02-28T00:27:09;7.93;;;3.97;;
15990;SDS011;8100;50.994;4.538;2023-02-28T00:29:56;6.00;;;3.58;;
15990;SDS011;8100;50.994;4.538;2023-02-28T00:32:44;6.78;;;3.85;;
15990;SDS011;8100;50.994;4.538;2023-02-28T00:35:31;8.88;;;3.97;;
15990;SDS011;8100;50.994;4.538;2023-02-28T00:38:18;6.65;;;4.13;;
15990;SDS011;8100;50.994;4.538;2023-02-28T00:41:06;9.02;;;4.45;;
15990;SDS011;8100;50.994;4.538;2023-02-28T00:43:55;7.57;;;4.20;;
15990;SDS011;8100;50.994;4.538;2023-02-28T00:46:42;6.53;;;4.13;;
15990;SDS011;8100;50.994;4.538;2023-02-28T00:49:29;7.03;;;4.20;;
15990;SDS011;8100;50.994;4.538;2023-02-28T00:52:16;5.05;;;3.83;;
15990;SDS011;8100;50.994;4.538;2023-02-28T00:55:04;7.85;;;4.50;;
15990;SDS011;8100;50.994;4.538;2023-02-28T00:57:51;6.68;;;4.18;;
15990;SDS011;8100;50.994;4.538;2023-02-28T01:00:40;7.20;;;3.67;;
15990;SDS011;8100;50.994;4.538;2023-02-28T01:03:27;6.45;;;4.05;;
15990;SDS011;8100;50.994;4.538;2023-02-28T01:06:14;7.97;;;4.47;;
15990;SDS011;8100;50.994;4.538;2023-02-28T01:09:02;7.10;;;4.82;;
15990;SDS011;8100;50.994;4.538;2023-02-28T01:11:50;5.53;;;4.25;;
15990;SDS011;8100;50.994;4.538;2023-02-28T01:14:37;6.50;;;4.30;;
15990;SDS011;8100;50.994;4.538;2023-02-28T01:17:26;6.93;;;4.40;;
15990;SDS011;8100;50.994;4.538;2023-02-28T01:20:13;5.07;;;3.88;;
15990;SDS011;8100;50.994;4.538;2023-02-28T01:23:01;7.82;;;4.18;;
15990;SDS011;8100;50.994;4.538;2023-02-28T01:25:48;6.30;;;4.60;;
15990;SDS011;8100;50.994;4.538;2023-02-28T01:28:35;7.57;;;4.40;;
15990;SDS011;8100;50.994;4.538;2023-02-28T01:31:23;8.10;;;4.80;;
15990;SDS011;8100;50.994;4.538;2023-02-28T01:34:11;7.55;;;4.22;;
15990;SDS011;8100;50.994;4.538;2023-02-28T01:36:59;7.65;;;4.63;;
15990;SDS011;8100;50.994;4.538;2023-02-28T01:39:46;6.85;;;4.47;;
15990;SDS011;8100;50.994;4.538;2023-02-28T01:42:33;6.90;;;4.53;;
15990;SDS011;8100;50.994;4.538;2023-02-28T01:45:22;7.78;;;4.72;;
15990;SDS011;8100;50.994;4.538;2023-02-28T01:48:11;6.53;;;4.32;;
15990;SDS011;8100;50.994;4.538;2023-02-28T01:51:01;8.52;;;4.32;;
15990;SDS011;8100;50.994;4.538;2023-02-28T01:53:54;7.38;;;4.88;;
15990;SDS011;8100;50.994;4.538;2023-02-28T01:56:45;8.18;;;4.75;;
15990;SDS011;8100;50.994;4.538;2023-02-28T01:59:37;7.63;;;4.57;;
15990;SDS011;8100;50.994;4.538;2023-02-28T02:02:31;8.73;;;5.13;;
15990;SDS011;8100;50.994;4.538;2023-02-28T02:05:19;6.43;;;4.90;;
15990;SDS011;8100;50.994;4.538;2023-02-28T02:08:09;6.75;;;4.68;;
15990;SDS011;8100;50.994;4.538;2023-02-28T02:10:59;8.82;;;4.75;;
15990;SDS011;8100;50.994;4.538;2023-02-28T02:13:54;6.68;;;4.38;;
15990;SDS011;8100;50.994;4.538;2023-02-28T02:16:59;8.52;;;4.63;;
15990;SDS011;8100;50.994;4.538;2023-02-28T02:20:12;8.30;;;4.70;;
15990;SDS011;8100;50.994;4.538;2023-02-28T02:23:20;8.65;;;5.10;;
15990;SDS011;8100;50.994;4.538;2023-02-28T02:26:42;8.60;;;4.40;;
15990;SDS011;8100;50.994;4.538;2023-02-28T02:30:00;9.95;;;5.10;;
15990;SDS011;8100;50.994;4.538;2023-02-28T02:33:24;8.52;;;5.22;;
15990;SDS011;8100;50.994;4.538;2023-02-28T02:36:33;6.53;;;4.43;;
15990;SDS011;8100;50.994;4.538;2023-02-28T02:39:25;9.00;;;5.43;;
15990;SDS011;8100;50.994;4.538;2023-02-28T02:42:19;8.27;;;5.18;;
15990;SDS011;8100;50.994;4.538;2023-02-28T02:45:12;7.30;;;5.03;;
15990;SDS011;8100;50.994;4.538;2023-02-28T02:48:03;6.60;;;4.88;;
15990;SDS011;8100;50.994;4.538;2023-02-28T02:50:55;10.05;;;5.10;;
15990;SDS011;8100;50.994;4.538;2023-02-28T02:53:48;9.20;;;5.32;;
15990;SDS011;8100;50.994;4.538;2023-02-28T02:56:38;10.38;;;5.82;;
15990;SDS011;8100;50.994;4.538;2023-02-28T02:59:28;8.07;;;5.07;;
15990;SDS011;8100;50.994;4.538;2023-02-28T03:02:18;9.43;;;5.82;;
15990;SDS011;8100;50.994;4.538;2023-02-28T03:05:08;9.02;;;5.45;;
15990;SDS011;8100;50.994;4.538;2023-02-28T03:08:02;8.93;;;5.38;;
15990;SDS011;8100;50.994;4.538;2023-02-28T03:10:52;9.38;;;5.85;;
15990;SDS011;8100;50.994;4.538;2023-02-28T03:20:15;5.90;;;4.68;;
15990;SDS011;8100;50.994;4.538;2023-02-28T03:23:13;8.40;;;4.97;;
15990;SDS011;8100;50.994;4.538;2023-02-28T03:26:07;8.35;;;4.75;;
15990;SDS011;8100;50.994;4.538;2023-02-28T03:29:04;8.02;;;5.15;;
15990;SDS011;8100;50.994;4.538;2023-02-28T03:31:59;6.25;;;4.80;;
15990;SDS011;8100;50.994;4.538;2023-02-28T03:34:50;6.80;;;4.78;;
15990;SDS011;8100;50.994;4.538;2023-02-28T03:37:49;8.23;;;4.75;;
15990;SDS011;8100;50.994;4.538;2023-02-28T03:40:41;6.00;;;4.63;;
15990;SDS011;8100;50.994;4.538;2023-02-28T03:43:34;8.20;;;5.18;;
15990;SDS011;8100;50.994;4.538;2023-02-28T03:46:25;8.50;;;5.28;;
15990;SDS011;8100;50.994;4.538;2023-02-28T03:49:17;9.00;;;5.10;;
15990;SDS011;8100;50.994;4.538;2023-02-28T03:52:06;7.78;;;5.45;;
15990;SDS011;8100;50.994;4.538;2023-02-28T03:54:56;6.60;;;4.85;;
15990;SDS011;8100;50.994;4.538;2023-02-28T03:57:50;9.38;;;5.45;;
15990;SDS011;8100;50.994;4.538;2023-02-28T04:00:46;7.55;;;4.97;;
15990;SDS011;8100;50.994;4.538;2023-02-28T04:03:36;8.15;;;4.40;;
15990;SDS011;8100;50.994;4.538;2023-02-28T04:06:25;6.57;;;5.07;;
15990;SDS011;8100;50.994;4.538;2023-02-28T04:09:14;9.82;;;5.22;;
15990;SDS011;8100;50.994;4.538;2023-02-28T04:12:01;11.40;;;5.10;;
15990;SDS011;8100;50.994;4.538;2023-02-28T04:14:49;9.63;;;4.78;;
15990;SDS011;8100;50.994;4.538;2023-02-28T04:17:37;7.30;;;4.78;;
15990;SDS011;8100;50.994;4.538;2023-02-28T04:20:24;7.75;;;4.78;;
15990;SDS011;8100;50.994;4.538;2023-02-28T04:23:11;10.10;;;5.60;;
15990;SDS011;8100;50.994;4.538;2023-02-28T04:25:59;8.93;;;5.05;;
15990;SDS011;8100;50.994;4.538;2023-02-28T04:28:46;8.80;;;5.05;;
15990;SDS011;8100;50.994;4.538;2023-02-28T04:31:33;6.68;;;4.85;;
15990;SDS011;8100;50.994;4.538;2023-02-28T04:34:22;10.23;;;5.18;;
15990;SDS011;8100;50.994;4.538;2023-02-28T04:37:10;9.18;;;5.10;;
15990;SDS011;8100;50.994;4.538;2023-02-28T04:39:57;6.57;;;4.90;;
15990;SDS011;8100;50.994;4.538;2023-02-28T04:42:44;9.13;;;4.90;;
15990;SDS011;8100;50.994;4.538;2023-02-28T04:45:32;10.40;;;5.38;;
15990;SDS011;8100;50.994;4.538;2023-02-28T04:48:19;6.32;;;4.53;;
15990;SDS011;8100;50.994;4.538;2023-02-28T04:51:08;7.20;;;5.22;;
15990;SDS011;8100;50.994;4.538;2023-02-28T04:53:57;6.40;;;4.63;;
15990;SDS011;8100;50.994;4.538;2023-02-28T04:56:44;7.38;;;4.70;;
15990;SDS011;8100;50.994;4.538;2023-02-28T04:59:33;9.50;;;5.18;;
15990;SDS011;8100;50.994;4.538;2023-02-28T05:02:21;8.27;;;5.18;;
15990;SDS011;8100;50.994;4.538;2023-02-28T05:05:09;8.20;;;5.03;;
15990;SDS011;8100;50.994;4.538;2023-02-28T05:07:58;8.27;;;5.32;;
15990;SDS011;8100;50.994;4.538;2023-02-28T05:10:45;8.68;;;4.90;;
15990;SDS011;8100;50.994;4.538;2023-02-28T05:13:33;8.18;;;4.93;;
15990;SDS011;8100;50.994;4.538;2023-02-28T05:16:21;6.88;;;4.20;;
15990;SDS011;8100;50.994;4.538;2023-02-28T05:19:08;8.23;;;4.68;;
15990;SDS011;8100;50.994;4.538;2023-02-28T05:21:55;8.00;;;4.97;;
15990;SDS011;8100;50.994;4.538;2023-02-28T05:24:44;9.45;;;4.93;;
15990;SDS011;8100;50.994;4.538;2023-02-28T05:27:31;8.60;;;5.40;;
15990;SDS011;8100;50.994;4.538;2023-02-28T05:30:19;9.18;;;5.43;;
15990;SDS011;8100;50.994;4.538;2023-02-28T05:33:09;8.60;;;5.50;;
15990;SDS011;8100;50.994;4.538;2023-02-28T05:35:58;9.57;;;5.68;;
15990;SDS011;8100;50.994;4.538;2023-02-28T05:38:45;7.90;;;4.75;;
15990;SDS011;8100;50.994;4.538;2023-02-28T05:41:35;10.35;;;5.38;;
15990;SDS011;8100;50.994;4.538;2023-02-28T05:44:22;7.47;;;5.05;;
15990;SDS011;8100;50.994;4.538;2023-02-28T05:47:10;7.38;;;4.93;;
15990;SDS011;8100;50.994;4.538;2023-02-28T05:50:00;6.40;;;4.40;;
15990;SDS011;8100;50.994;4.538;2023-02-28T05:52:49;9.68;;;5.22;;
15990;SDS011;8100;50.994;4.538;2023-02-28T05:55:36;7.28;;;4.93;;
15990;SDS011;8100;50.994;4.538;2023-02-28T05:58:25;6.18;;;5.15;;
15990;SDS011;8100;50.994;4.538;2023-02-28T06:01:19;8.10;;;4.60;;
15990;SDS011;8100;50.994;4.538;2023-02-28T06:04:09;6.03;;;4.70;;
15990;SDS011;8100;50.994;4.538;2023-02-28T06:06:59;11.40;;;4.93;;
15990;SDS011;8100;50.994;4.538;2023-02-28T06:09:47;6.95;;;4.75;;
15990;SDS011;8100;50.994;4.538;2023-02-28T06:12:34;9.30;;;4.95;;
15990;SDS011;8100;50.994;4.538;2023-02-28T06:15:22;6.20;;;4.70;;
15990;SDS011;8100;50.994;4.538;2023-02-28T06:18:10;9.68;;;4.97;;
15990;SDS011;8100;50.994;4.538;2023-02-28T06:20:57;6.82;;;4.32;;
15990;SDS011;8100;50.994;4.538;2023-02-28T06:23:44;8.30;;;4.82;;
15990;SDS011;8100;50.994;4.538;2023-02-28T06:26:31;7.35;;;4.55;;
15990;SDS011;8100;50.994;4.538;2023-02-28T06:29:18;9.07;;;4.68;;
15990;SDS011;8100;50.994;4.538;2023-02-28T06:32:07;8.52;;;5.20;;
15990;SDS011;8100;50.994;4.538;2023-02-28T06:34:54;7.15;;;4.63;;
15990;SDS011;8100;50.994;4.538;2023-02-28T06:37:43;9.80;;;5.05;;
15990;SDS011;8100;50.994;4.538;2023-02-28T06:40:30;9.38;;;4.88;;
15990;SDS011;8100;50.994;4.538;2023-02-28T06:43:21;6.47;;;4.60;;
15990;SDS011;8100;50.994;4.538;2023-02-28T06:46:10;8.80;;;5.05;;
15990;SDS011;8100;50.994;4.538;2023-02-28T06:49:01;8.48;;;4.65;;
15990;SDS011;8100;50.994;4.538;2023-02-28T06:51:49;9.10;;;4.90;;
15990;SDS011;8100;50.994;4.538;2023-02-28T06:54:36;8.35;;;4.82;;
15990;SDS011;8100;50.994;4.538;2023-02-28T06:57:24;7.95;;;5.07;;
15990;SDS011;8100;50.994;4.538;2023-02-28T07:00:11;7.55;;;5.20;;
15990;SDS011;8100;50.994;4.538;2023-02-28T07:02:59;7.32;;;5.22;;
15990;SDS011;8100;50.994;4.538;2023-02-28T07:05:48;10.00;;;5.35;;
15990;SDS011;8100;50.994;4.538;2023-02-28T07:08:36;8.30;;;5.05;;
15990;SDS011;8100;50.994;4.538;2023-02-28T07:11:26;9.30;;;5.32;;
15990;SDS011;8100;50.994;4.538;2023-02-28T07:14:14;10.48;;;5.55;;
15990;SDS011;8100;50.994;4.538;2023-02-28T07:17:02;8.73;;;5.05;;
15990;SDS011;8100;50.994;4.538;2023-02-28T07:19:49;9.73;;;5.20;;
15990;SDS011;8100;50.994;4.538;2023-02-28T07:22:38;8.15;;;5.20;;
15990;SDS011;8100;50.994;4.538;2023-02-28T07:25:25;12.30;;;5.15;;
15990;SDS011;8100;50.994;4.538;2023-02-28T07:28:14;9.43;;;5.28;;
15990;SDS011;8100;50.994;4.538;2023-02-28T07:31:05;7.93;;;4.88;;
15990;SDS011;8100;50.994;4.538;2023-02-28T07:33:53;7.47;;;5.00;;
15990;SDS011;8100;50.994;4.538;2023-02-28T07:36:41;10.02;;;4.95;;
15990;SDS011;8100;50.994;4.538;2023-02-28T07:39:30;6.13;;;4.55;;
15990;SDS011;8100;50.994;4.538;2023-02-28T07:42:17;8.35;;;4.05;;
15990;SDS011;8100;50.994;4.538;2023-02-28T07:45:05;8.80;;;4.95;;
15990;SDS011;8100;50.994;4.538;2023-02-28T07:47:54;8.27;;;4.82;;
15990;SDS011;8100;50.994;4.538;2023-02-28T07:50:41;7.47;;;4.30;;
15990;SDS011;8100;50.994;4.538;2023-02-28T07:53:29;8.55;;;5.00;;
15990;SDS011;8100;50.994;4.538;2023-02-28T07:56:17;8.38;;;4.78;;
15990;SDS011;8100;50.994;4.538;2023-02-28T07:59:05;7.13;;;4.80;;
15990;SDS011;8100;50.994;4.538;2023-02-28T08:01:52;7.80;;;4.38;;
15990;SDS011;8100;50.994;4.538;2023-02-28T08:04:39;7.93;;;4.20;;
15990;SDS011;8100;50.994;4.538;2023-02-28T08:07:26;10.38;;;4.65;;
15990;SDS011;8100;50.994;4.538;2023-02-28T08:10:14;7.70;;;3.88;;
15990;SDS011;8100;50.994;4.538;2023-02-28T08:13:03;9.10;;;4.40;;
15990;SDS011;8100;50.994;4.538;2023-02-28T08:15:50;5.90;;;3.95;;
15990;SDS011;8100;50.994;4.538;2023-02-28T08:18:37;9.07;;;3.85;;
15990;SDS011;8100;50.994;4.538;2023-02-28T08:21:24;8.57;;;4.57;;
15990;SDS011;8100;50.994;4.538;2023-02-28T08:24:12;6.53;;;2.40;;
15990;SDS011;8100;50.994;4.538;2023-02-28T08:26:59;7.15;;;3.58;;
15990;SDS011;8100;50.994;4.538;2023-02-28T08:29:48;6.75;;;3.60;;
15990;SDS011;8100;50.994;4.538;2023-02-28T08:32:35;5.10;;;3.10;;
15990;SDS011;8100;50.994;4.538;2023-02-28T08:35:22;5.32;;;2.88;;
15990;SDS011;8100;50.994;4.538;2023-02-28T08:38:09;6.43;;;2.70;;
15990;SDS011;8100;50.994;4.538;2023-02-28T08:40:57;2.55;;;0.82;;
15990;SDS011;8100;50.994;4.538;2023-02-28T08:43:45;4.57;;;2.55;;
15990;SDS011;8100;50.994;4.538;2023-02-28T08:46:34;3.80;;;2.72;;
15990;SDS011;8100;50.994;4.538;2023-02-28T08:49:21;3.85;;;2.47;;
15990;SDS011;8100;50.994;4.538;2023-02-28T08:52:08;3.92;;;2.50;;
15990;SDS011;8100;50.994;4.538;2023-02-28T08:54:55;5.57;;;3.13;;
15990;SDS011;8100;50.994;4.538;2023-02-28T08:57:43;4.57;;;2.40;;
15990;SDS011;8100;50.994;4.538;2023-02-28T09:00:30;2.25;;;1.23;;
15990;SDS011;8100;50.994;4.538;2023-02-28T09:03:18;3.33;;;2.38;;
15990;SDS011;8100;50.994;4.538;2023-02-28T09:06:06;2.85;;;2.08;;
15990;SDS011;8100;50.994;4.538;2023-02-28T09:08:55;3.88;;;2.67;;
15990;SDS011;8100;50.994;4.538;2023-02-28T09:11:44;2.28;;;1.10;;
15990;SDS011;8100;50.994;4.538;2023-02-28T09:14:32;4.20;;;2.20;;
15990;SDS011;8100;50.994;4.538;2023-02-28T09:17:19;3.88;;;1.23;;
15990;SDS011;8100;50.994;4.538;2023-02-28T09:20:09;1.75;;;0.85;;
15990;SDS011;8100;50.994;4.538;2023-02-28T09:22:57;1.98;;;1.30;;
15990;SDS011;8100;50.994;4.538;2023-02-28T09:25:45;2.97;;;1.25;;
15990;SDS011;8100;50.994;4.538;2023-02-28T09:28:33;3.05;;;1.65;;
15990;SDS011;8100;50.994;4.538;2023-02-28T09:31:22;3.00;;;1.45;;
15990;SDS011;8100;50.994;4.538;2023-02-28T09:34:10;4.15;;;1.85;;
15990;SDS011;8100;50.994;4.538;2023-02-28T09:36:59;3.25;;;1.98;;
15990;SDS011;8100;50.994;4.538;2023-02-28T09:39:46;2.00;;;1.40;;
15990;SDS011;8100;50.994;4.538;2023-02-28T09:42:33;1.75;;;1.02;;
15990;SDS011;8100;50.994;4.538;2023-02-28T09:45:22;2.40;;;1.55;;
15990;SDS011;8100;50.994;4.538;2023-02-28T09:48:14;2.80;;;1.63;;
15990;SDS011;8100;50.994;4.538;2023-02-28T09:51:09;1.17;;;0.70;;
15990;SDS011;8100;50.994;4.538;2023-02-28T09:54:03;1.85;;;0.52;;
15990;SDS011;8100;50.994;4.538;2023-02-28T09:56:51;2.60;;;1.20;;
15990;SDS011;8100;50.994;4.538;2023-02-28T09:59:45;0.95;;;0.77;;
15990;SDS011;8100;50.994;4.538;2023-02-28T10:02:44;1.45;;;0.95;;
15990;SDS011;8100;50.994;4.538;2023-02-28T10:05:41;4.88;;;1.88;;
15990;SDS011;8100;50.994;4.538;2023-02-28T10:08:31;2.92;;;1.55;;
15990;SDS011;8100;50.994;4.538;2023-02-28T10:11:29;0.63;;;0.17;;
15990;SDS011;8100;50.994;4.538;2023-02-28T10:14:21;0.47;;;0.40;;
15990;SDS011;8100;50.994;4.538;2023-02-28T10:17:10;0.95;;;0.60;;
15990;SDS011;8100;50.994;4.538;2023-02-28T10:20:00;1.73;;;1.08;;
15990;SDS011;8100;50.994;4.538;2023-02-28T10:22:56;2.78;;;1.67;;
15990;SDS011;8100;50.994;4.538;2023-02-28T10:25:46;2.83;;;1.70;;
15990;SDS011;8100;50.994;4.538;2023-02-28T10:28:41;2.03;;;1.75;;
15990;SDS011;8100;50.994;4.538;2023-02-28T10:31:28;0.70;;;0.50;;
15990;SDS011;8100;50.994;4.538;2023-02-28T10:34:16;1.35;;;0.80;;
15990;SDS011;8100;50.994;4.538;2023-02-28T10:37:03;0.50;;;0.40;;
15990;SDS011;8100;50.994;4.538;2023-02-28T10:39:53;2.25;;;1.60;;
15990;SDS011;8100;50.994;4.538;2023-02-28T10:42:41;1.73;;;1.20;;
15990;SDS011;8100;50.994;4.538;2023-02-28T10:45:30;5.28;;;1.45;;
15990;SDS011;8100;50.994;4.538;2023-02-28T10:48:26;2.42;;;1.80;;
15990;SDS011;8100;50.994;4.538;2023-02-28T10:51:18;2.05;;;1.45;;
15990;SDS011;8100;50.994;4.538;2023-02-28T10:54:06;2.13;;;1.80;;
15990;SDS011;8100;50.994;4.538;2023-02-28T10:57:12;3.92;;;1.90;;
15990;SDS011;8100;50.994;4.538;2023-02-28T11:00:07;2.78;;;1.38;;
15990;SDS011;8100;50.994;4.538;2023-02-28T11:03:03;5.38;;;1.95;;
15990;SDS011;8100;50.994;4.538;2023-02-28T11:06:13;2.42;;;1.80;;
15990;SDS011;8100;50.994;4.538;2023-02-28T11:09:04;2.03;;;1.00;;
15990;SDS011;8100;50.994;4.538;2023-02-28T11:12:03;2.63;;;1.40;;
15990;SDS011;8100;50.994;4.538;2023-02-28T11:14:53;1.88;;;1.33;;
15990;SDS011;8100;50.994;4.538;2023-02-28T11:17:43;2.92;;;1.98;;
15990;SDS011;8100;50.994;4.538;2023-02-28T11:20:32;2.67;;;1.48;;
15990;SDS011;8100;50.994;4.538;2023-02-28T11:23:20;2.85;;;1.80;;
15990;SDS011;8100;50.994;4.538;2023-02-28T11:26:09;2.70;;;1.00;;
15990;SDS011;8100;50.994;4.538;2023-02-28T11:29:03;2.78;;;1.98;;
15990;SDS011;8100;50.994;4.538;2023-02-28T11:32:01;0.63;;;0.32;;
15990;SDS011;8100;50.994;4.538;2023-02-28T11:34:59;3.92;;;1.73;;
15990;SDS011;8100;50.994;4.538;2023-02-28T11:37:51;5.07;;;1.67;;
15990;SDS011;8100;50.994;4.538;2023-02-28T11:40:40;1.65;;;1.30;;
15990;SDS011;8100;50.994;4.538;2023-02-28T11:43:37;1.67;;;0.85;;
15990;SDS011;8100;50.994;4.538;2023-02-28T11:46:33;1.95;;;1.13;;
15990;SDS011;8100;50.994;4.538;2023-02-28T11:49:30;3.72;;;1.42;;
15990;SDS011;8100;50.994;4.538;2023-02-28T11:52:24;1.90;;;1.38;;
15990;SDS011;8100;50.994;4.538;2023-02-28T11:55:21;2.33;;;1.42;;
15990;SDS011;8100;50.994;4.538;2023-02-28T11:58:25;0.52;;;0.50;;
15990;SDS011;8100;50.994;4.538;2023-02-28T12:01:21;1.35;;;1.02;;
15990;SDS011;8100;50.994;4.538;2023-02-28T12:04:24;1.60;;;1.00;;
15990;SDS011;8100;50.994;4.538;2023-02-28T12:07:18;1.73;;;0.90;;
15990;SDS011;8100;50.994;4.538;2023-02-28T12:10:18;2.42;;;1.10;;
15990;SDS011;8100;50.994;4.538;2023-02-28T12:13:12;2.08;;;1.35;;
15990;SDS011;8100;50.994;4.538;2023-02-28T12:19:24;3.22;;;1.77;;
15990;SDS011;8100;50.994;4.538;2023-02-28T12:22:30;3.78;;;1.60;;
15990;SDS011;8100;50.994;4.538;2023-02-28T12:28:47;1.05;;;0.73;;
15990;SDS011;8100;50.994;4.538;2023-02-28T12:31:40;2.92;;;1.75;;
15990;SDS011;8100;50.994;4.538;2023-02-28T12:34:33;2.17;;;1.40;;
15990;SDS011;8100;50.994;4.538;2023-02-28T12:37:25;2.33;;;1.50;;
15990;SDS011;8100;50.994;4.538;2023-02-28T12:40:18;2.45;;;1.50;;
15990;SDS011;8100;50.994;4.538;2023-02-28T12:43:09;0.90;;;0.50;;
15990;SDS011;8100;50.994;4.538;2023-02-28T12:45:59;1.52;;;1.40;;
15990;SDS011;8100;50.994;4.538;2023-02-28T12:48:50;2.22;;;1.27;;
15990;SDS011;8100;50.994;4.538;2023-02-28T12:51:42;2.35;;;1.25;;
15990;SDS011;8100;50.994;4.538;2023-02-28T12:54:35;1.75;;;1.55;;
15990;SDS011;8100;50.994;4.538;2023-02-28T12:57:25;3.97;;;1.80;;
15990;SDS011;8100;50.994;4.538;2023-02-28T13:00:20;2.75;;;2.05;;
15990;SDS011;8100;50.994;4.538;2023-02-28T13:06:39;3.85;;;1.58;;
15990;SDS011;8100;50.994;4.538;2023-02-28T13:09:38;3.17;;;2.00;;
15990;SDS011;8100;50.994;4.538;2023-02-28T13:12:26;0.60;;;0.52;;
15990;SDS011;8100;50.994;4.538;2023-02-28T13:15:16;1.77;;;0.45;;
15990;SDS011;8100;50.994;4.538;2023-02-28T13:18:20;3.20;;;1.05;;
15990;SDS011;8100;50.994;4.538;2023-02-28T13:21:22;3.33;;;1.58;;
15990;SDS011;8100;50.994;4.538;2023-02-28T13:24:13;2.55;;;1.60;;
15990;SDS011;8100;50.994;4.538;2023-02-28T13:27:36;3.03;;;1.70;;
15990;SDS011;8100;50.994;4.538;2023-02-28T13:34:12;0.35;;;0.35;;
15990;SDS011;8100;50.994;4.538;2023-02-28T13:40:28;1.00;;;0.90;;
15990;SDS011;8100;50.994;4.538;2023-02-28T13:43:24;3.72;;;2.00;;
15990;SDS011;8100;50.994;4.538;2023-02-28T13:50:14;3.45;;;1.67;;
15990;SDS011;8100;50.994;4.538;2023-02-28T13:53:17;1.38;;;0.50;;
15990;SDS011;8100;50.994;4.538;2023-02-28T13:56:33;2.20;;;1.80;;
15990;SDS011;8100;50.994;4.538;2023-02-28T13:59:30;2.55;;;1.58;;
15990;SDS011;8100;50.994;4.538;2023-02-28T14:02:29;2.78;;;1.08;;
15990;SDS011;8100;50.994;4.538;2023-02-28T14:05:33;2.03;;;1.02;;
15990;SDS011;8100;50.994;4.538;2023-02-28T14:08:21;2.42;;;1.60;;
15990;SDS011;8100;50.994;4.538;2023-02-28T14:11:15;1.83;;;1.05;;
15990;SDS011;8100;50.994;4.538;2023-02-28T14:17:44;4.28;;;2.38;;
15990;SDS011;8100;50.994;4.538;2023-02-28T14:20:32;3.22;;;1.92;;
15990;SDS011;8100;50.994;4.538;2023-02-28T14:23:24;2.88;;;1.90;;
15990;SDS011;8100;50.994;4.538;2023-02-28T14:26:30;2.97;;;2.28;;
15990;SDS011;8100;50.994;4.538;2023-02-28T14:29:33;3.42;;;2.35;;
15990;SDS011;8100;50.994;4.538;2023-02-28T14:32:32;2.10;;;1.48;;
15990;SDS011;8100;50.994;4.538;2023-02-28T14:35:29;3.35;;;2.03;;
15990;SDS011;8100;50.994;4.538;2023-02-28T14:38:30;2.20;;;1.55;;
15990;SDS011;8100;50.994;4.538;2023-02-28T14:41:22;4.07;;;1.92;;
15990;SDS011;8100;50.994;4.538;2023-02-28T14:44:16;0.88;;;0.75;;
15990;SDS011;8100;50.994;4.538;2023-02-28T14:47:11;4.80;;;1.65;;
15990;SDS011;8100;50.994;4.538;2023-02-28T14:50:03;3.28;;;1.27;;
15990;SDS011;8100;50.994;4.538;2023-02-28T14:52:52;1.80;;;1.35;;
15990;SDS011;8100;50.994;4.538;2023-02-28T14:55:43;3.80;;;2.13;;
15990;SDS011;8100;50.994;4.538;2023-02-28T14:58:32;2.70;;;1.27;;
15990;SDS011;8100;50.994;4.538;2023-02-28T15:01:20;3.20;;;2.28;;
15990;SDS011;8100;50.994;4.538;2023-02-28T15:04:12;5.68;;;2.15;;
15990;SDS011;8100;50.994;4.538;2023-02-28T15:07:13;3.38;;;2.05;;
15990;SDS011;8100;50.994;4.538;2023-02-28T15:10:11;1.05;;;0.60;;
15990;SDS011;8100;50.994;4.538;2023-02-28T15:13:05;3.08;;;1.67;;
15990;SDS011;8100;50.994;4.538;2023-02-28T15:15:54;5.35;;;2.17;;
15990;SDS011;8100;50.994;4.538;2023-02-28T15:18:44;1.73;;;1.02;;
15990;SDS011;8100;50.994;4.538;2023-02-28T15:21:35;2.72;;;2.05;;
15990;SDS011;8100;50.994;4.538;2023-02-28T15:24:29;4.55;;;1.98;;
15990;SDS011;8100;50.994;4.538;2023-02-28T15:27:22;4.32;;;1.48;;
15990;SDS011;8100;50.994;4.538;2023-02-28T15:30:14;3.55;;;2.10;;
15990;SDS011;8100;50.994;4.538;2023-02-28T15:33:05;1.58;;;1.20;;
15990;SDS011;8100;50.994;4.538;2023-02-28T15:36:05;0.95;;;0.70;;
15990;SDS011;8100;50.994;4.538;2023-02-28T15:38:54;5.13;;;2.50;;
15990;SDS011;8100;50.994;4.538;2023-02-28T15:41:43;2.97;;;1.73;;
15990;SDS011;8100;50.994;4.538;2023-02-28T15:44:33;2.97;;;1.95;;
15990;SDS011;8100;50.994;4.538;2023-02-28T15:47:21;0.40;;;0.28;;
15990;SDS011;8100;50.994;4.538;2023-02-28T15:50:10;4.10;;;2.10;;
15990;SDS011;8100;50.994;4.538;2023-02-28T15:53:00;4.18;;;1.92;;
15990;SDS011;8100;50.994;4.538;2023-02-28T15:55:54;3.97;;;2.53;;
15990;SDS011;8100;50.994;4.538;2023-02-28T15:58:45;3.58;;;1.80;;
15990;SDS011;8100;50.994;4.538;2023-02-28T16:01:32;0.68;;;0.35;;
15990;SDS011;8100;50.994;4.538;2023-02-28T16:04:20;4.30;;;1.98;;
15990;SDS011;8100;50.994;4.538;2023-02-28T16:07:12;3.83;;;2.20;;
15990;SDS011;8100;50.994;4.538;2023-02-28T16:10:00;2.53;;;1.38;;
15990;SDS011;8100;50.994;4.538;2023-02-28T16:12:47;2.78;;;1.85;;
15990;SDS011;8100;50.994;4.538;2023-02-28T16:15:37;2.95;;;1.70;;
15990;SDS011;8100;50.994;4.538;2023-02-28T16:18:28;6.93;;;1.92;;
15990;SDS011;8100;50.994;4.538;2023-02-28T16:21:15;2.47;;;1.38;;
15990;SDS011;8100;50.994;4.538;2023-02-28T16:24:03;3.13;;;2.25;;
15990;SDS011;8100;50.994;4.538;2023-02-28T16:26:50;3.63;;;2.30;;
15990;SDS011;8100;50.994;4.538;2023-02-28T16:29:40;5.45;;;2.25;;
15990;SDS011;8100;50.994;4.538;2023-02-28T16:32:28;3.63;;;1.98;;
15990;SDS011;8100;50.994;4.538;2023-02-28T16:35:17;4.10;;;2.20;;
15990;SDS011;8100;50.994;4.538;2023-02-28T16:38:05;2.75;;;1.88;;
15990;SDS011;8100;50.994;4.538;2023-02-28T16:40:53;4.28;;;2.45;;
15990;SDS011;8100;50.994;4.538;2023-02-28T16:43:44;3.38;;;1.98;;
15990;SDS011;8100;50.994;4.538;2023-02-28T16:46:33;4.47;;;2.38;;
15990;SDS011;8100;50.994;4.538;2023-02-28T16:49:22;8.77;;;2.70;;
15990;SDS011;8100;50.994;4.538;2023-02-28T16:52:09;3.40;;;2.53;;
15990;SDS011;8100;50.994;4.538;2023-02-28T16:54:57;5.20;;;3.00;;
15990;SDS011;8100;50.994;4.538;2023-02-28T16:57:45;4.53;;;2.80;;
15990;SDS011;8100;50.994;4.538;2023-02-28T17:00:37;4.47;;;2.90;;
15990;SDS011;8100;50.994;4.538;2023-02-28T17:03:25;4.50;;;3.05;;
15990;SDS011;8100;50.994;4.538;2023-02-28T17:06:19;4.28;;;3.03;;
15990;SDS011;8100;50.994;4.538;2023-02-28T17:09:09;5.88;;;3.15;;
15990;SDS011;8100;50.994;4.538;2023-02-28T17:12:03;4.20;;;2.80;;
15990;SDS011;8100;50.994;4.538;2023-02-28T17:14:50;4.30;;;2.22;;
15990;SDS011;8100;50.994;4.538;2023-02-28T17:17:38;4.53;;;2.80;;
15990;SDS011;8100;50.994;4.538;2023-02-28T17:20:25;8.27;;;3.20;;
15990;SDS011;8100;50.994;4.538;2023-02-28T17:23:14;5.53;;;3.40;;
15990;SDS011;8100;50.994;4.538;2023-02-28T17:26:01;5.68;;;3.53;;
15990;SDS011;8100;50.994;4.538;2023-02-28T17:28:52;6.50;;;3.78;;
15990;SDS011;8100;50.994;4.538;2023-02-28T17:31:41;6.88;;;3.92;;
15990;SDS011;8100;50.994;4.538;2023-02-28T17:34:28;5.90;;;3.80;;
15990;SDS011;8100;50.994;4.538;2023-02-28T17:37:15;5.32;;;3.60;;
15990;SDS011;8100;50.994;4.538;2023-02-28T17:40:04;5.80;;;3.92;;
15990;SDS011;8100;50.994;4.538;2023-02-28T17:42:52;9.60;;;5.10;;
15990;SDS011;8100;50.994;4.538;2023-02-28T17:45:42;12.20;;;5.63;;
15990;SDS011;8100;50.994;4.538;2023-02-28T17:48:29;14.45;;;6.07;;
15990;SDS011;8100;50.994;4.538;2023-02-28T17:51:17;10.45;;;5.72;;
15990;SDS011;8100;50.994;4.538;2023-02-28T17:54:05;10.57;;;5.43;;
15990;SDS011;8100;50.994;4.538;2023-02-28T17:56:54;8.52;;;4.95;;